Time;durP1;ratioP1;P1;durP2;ratioP2;P2;SDS_P1;SDS_P2;PMS_P1;PMS_P2;Temp;Humidity;BMP_temperature;BMP_pressure;BME280_temperature;BME280_humidity;BME280_pressure;Samples;Min_cycle;Max_cycle;Signal;HPM_P1;HPM_P2
2023/06/18 00:01:59;;;;;;;32.92;25.20;;;;;;;;;;5124764;27;20054;-66
2023/06/18 00:04:28;;;;;;;34.45;24.70;;;;;;;;;;5135581;27;20324;-66
2023/06/18 00:06:54;;;;;;;31.50;24.25;;;;;;;;;;5117695;27;20049;-66
2023/06/18 00:09:21;;;;;;;32.17;24.00;;;;;;;;;;5119944;27;20096;-66
2023/06/18 00:11:47;;;;;;;32.40;24.50;;;;;;;;;;5123183;27;20103;-66
2023/06/18 00:14:13;;;;;;;34.95;25.00;;;;;;;;;;5103001;27;20043;-66
2023/06/18 00:16:39;;;;;;;33.70;25.15;;;;;;;;;;5135124;27;20043;-66
2023/06/18 00:19:05;;;;;;;32.50;24.77;;;;;;;;;;5128021;27;20151;-66
2023/06/18 00:21:32;;;;;;;33.97;25.90;;;;;;;;;;5119404;27;20070;-66
2023/06/18 00:23:58;;;;;;;42.20;26.33;;;;;;;;;;5120416;27;20035;-66
2023/06/18 00:26:25;;;;;;;33.47;26.15;;;;;;;;;;5133924;27;20043;-66
2023/06/18 00:28:51;;;;;;;39.33;25.85;;;;;;;;;;5100422;27;20115;-66
2023/06/18 00:31:18;;;;;;;37.88;27.35;;;;;;;;;;5117197;27;20047;-66
2023/06/18 00:33:44;;;;;;;40.15;26.75;;;;;;;;;;5130204;27;20043;-66
2023/06/18 00:36:12;;;;;;;34.15;26.88;;;;;;;;;;5131317;27;20453;-66
2023/06/18 00:38:43;;;;;;;35.03;27.23;;;;;;;;;;5096472;27;20043;-66
2023/06/18 00:41:09;;;;;;;36.15;26.83;;;;;;;;;;5131463;27;20398;-66
2023/06/18 00:43:36;;;;;;;33.72;26.63;;;;;;;;;;5130796;27;20050;-66
2023/06/18 00:46:02;;;;;;;34.85;26.10;;;;;;;;;;5113239;27;20088;-66
2023/06/18 00:48:31;;;;;;;36.35;26.05;;;;;;;;;;5112499;27;20043;-66
2023/06/18 00:50:58;;;;;;;40.10;27.90;;;;;;;;;;5113322;27;20394;-66
2023/06/18 00:53:25;;;;;;;34.10;25.23;;;;;;;;;;5131048;27;20405;-66
2023/06/18 00:55:51;;;;;;;37.42;28.02;;;;;;;;;;5146983;27;20050;-66
2023/06/18 00:58:18;;;;;;;36.42;26.45;;;;;;;;;;5111625;27;20058;-66
2023/06/18 01:00:44;;;;;;;41.78;28.13;;;;;;;;;;5121102;27;20044;-66
2023/06/18 01:03:16;;;;;;;35.78;26.45;;;;;;;;;;5129806;27;20486;-66
2023/06/18 01:05:46;;;;;;;36.80;27.75;;;;;;;;;;5106579;28;20128;-66
2023/06/18 01:08:13;;;;;;;35.17;26.15;;;;;;;;;;5131574;27;20122;-66
2023/06/18 01:10:40;;;;;;;37.65;27.80;;;;;;;;;;5121348;27;20482;-66
2023/06/18 01:13:10;;;;;;;34.90;26.23;;;;;;;;;;5118900;27;20120;-66
2023/06/18 01:15:37;;;;;;;44.83;28.35;;;;;;;;;;5119270;27;20499;-65
2023/06/18 01:18:06;;;;;;;34.85;27.10;;;;;;;;;;5105339;27;20055;-66
2023/06/18 01:20:40;;;;;;;40.35;28.00;;;;;;;;;;5121016;27;20040;-66
2023/06/18 01:23:11;;;;;;;41.60;29.13;;;;;;;;;;5102328;28;20054;-66
2023/06/18 01:25:38;;;;;;;42.28;27.70;;;;;;;;;;5110452;27;20071;-66
2023/06/18 01:28:08;;;;;;;39.65;28.52;;;;;;;;;;5111507;28;20521;-66
2023/06/18 01:30:38;;;;;;;37.15;28.50;;;;;;;;;;5130561;27;20074;-66
2023/06/18 01:33:04;;;;;;;37.35;27.30;;;;;;;;;;5110639;28;20512;-66
2023/06/18 01:35:30;;;;;;;44.13;29.67;;;;;;;;;;5127026;27;20059;-66
2023/06/18 01:38:03;;;;;;;41.92;31.08;;;;;;;;;;5130878;27;20069;-66
2023/06/18 01:40:38;;;;;;;33.17;25.60;;;;;;;;;;5127252;27;20062;-66
2023/06/18 01:43:17;;;;;;;38.58;28.25;;;;;;;;;;5130669;27;20078;-66
2023/06/18 01:45:48;;;;;;;36.80;27.38;;;;;;;;;;5131324;27;20089;-66
2023/06/18 01:48:15;;;;;;;40.08;28.83;;;;;;;;;;5107396;28;20068;-66
2023/06/18 01:50:43;;;;;;;36.17;27.35;;;;;;;;;;5129903;27;20114;-66
2023/06/18 01:53:10;;;;;;;42.55;30.15;;;;;;;;;;5107229;28;20047;-66
2023/06/18 01:55:37;;;;;;;36.60;26.25;;;;;;;;;;5129350;27;20036;-66
2023/06/18 01:58:03;;;;;;;38.40;29.17;;;;;;;;;;5126761;27;20055;-66
2023/06/18 02:00:30;;;;;;;38.90;29.23;;;;;;;;;;5120116;27;20043;-66
2023/06/18 02:02:56;;;;;;;37.58;29.25;;;;;;;;;;5128937;27;20486;-66
2023/06/18 02:05:22;;;;;;;40.25;28.25;;;;;;;;;;5124799;27;20043;-66
2023/06/18 02:07:48;;;;;;;40.60;29.25;;;;;;;;;;5126985;27;20394;-66
2023/06/18 02:10:14;;;;;;;41.33;29.20;;;;;;;;;;5130496;27;20115;-66
2023/06/18 02:12:40;;;;;;;37.38;28.70;;;;;;;;;;5120266;27;20059;-66
2023/06/18 02:15:07;;;;;;;37.22;28.30;;;;;;;;;;5138514;27;20084;-66
2023/06/18 02:17:33;;;;;;;40.10;30.48;;;;;;;;;;5131718;27;20039;-66
2023/06/18 02:19:59;;;;;;;37.72;29.15;;;;;;;;;;5136065;27;20046;-66
2023/06/18 02:22:26;;;;;;;39.35;28.15;;;;;;;;;;5133753;27;20043;-66
2023/06/18 02:24:52;;;;;;;39.58;29.30;;;;;;;;;;5112646;27;21392;-66
2023/06/18 02:27:19;;;;;;;41.92;29.30;;;;;;;;;;5123617;27;20184;-66
2023/06/18 02:29:45;;;;;;;40.28;28.42;;;;;;;;;;5125830;27;20047;-66
2023/06/18 02:32:12;;;;;;;40.80;29.10;;;;;;;;;;5129745;27;20128;-66
2023/06/18 02:34:39;;;;;;;43.70;30.88;;;;;;;;;;5134482;27;20039;-66
2023/06/18 02:37:09;;;;;;;33.63;25.50;;;;;;;;;;5106294;27;20083;-66
2023/06/18 02:39:35;;;;;;;33.25;24.73;;;;;;;;;;5125420;27;20393;-66
2023/06/18 02:42:01;;;;;;;36.33;26.77;;;;;;;;;;5131750;27;20046;-66
2023/06/18 02:44:28;;;;;;;33.20;24.45;;;;;;;;;;5127419;27;20039;-66
2023/06/18 02:46:55;;;;;;;39.00;27.85;;;;;;;;;;5126374;27;20047;-66
2023/06/18 02:49:21;;;;;;;34.10;25.95;;;;;;;;;;5120562;27;20050;-66
2023/06/18 02:51:48;;;;;;;36.58;25.83;;;;;;;;;;5124077;27;20386;-66
2023/06/18 02:54:14;;;;;;;35.13;26.17;;;;;;;;;;5123786;27;20086;-66
2023/06/18 02:56:41;;;;;;;34.00;26.33;;;;;;;;;;5126322;27;20672;-66
2023/06/18 02:59:08;;;;;;;28.30;22.05;;;;;;;;;;5103129;27;20052;-66
2023/06/18 03:01:35;;;;;;;29.88;22.52;;;;;;;;;;5123397;27;20050;-66
2023/06/18 03:04:01;;;;;;;32.25;23.23;;;;;;;;;;5124120;27;20043;-66
2023/06/18 03:06:28;;;;;;;36.25;26.55;;;;;;;;;;5119534;27;20036;-66
2023/06/18 03:08:54;;;;;;;40.25;27.27;;;;;;;;;;5102180;27;20441;-66
2023/06/18 03:11:20;;;;;;;37.78;25.23;;;;;;;;;;5138382;27;20031;-66
2023/06/18 03:13:46;;;;;;;34.92;25.83;;;;;;;;;;5123019;27;20035;-66
2023/06/18 03:16:12;;;;;;;37.53;25.10;;;;;;;;;;5134269;27;20039;-66
2023/06/18 03:18:39;;;;;;;35.65;25.92;;;;;;;;;;5132489;27;20118;-66
2023/06/18 03:21:05;;;;;;;34.10;26.40;;;;;;;;;;5133906;27;20043;-66
2023/06/18 03:23:31;;;;;;;38.55;25.13;;;;;;;;;;5134840;27;20043;-66
2023/06/18 03:25:57;;;;;;;50.05;26.30;;;;;;;;;;5132088;27;20138;-66
2023/06/18 03:28:24;;;;;;;45.25;26.33;;;;;;;;;;5130528;27;20539;-66
2023/06/18 03:30:50;;;;;;;81.78;27.60;;;;;;;;;;5143196;27;20055;-66
2023/06/18 03:33:17;;;;;;;40.72;27.60;;;;;;;;;;5111224;28;20044;-66
2023/06/18 03:35:46;;;;;;;43.92;27.45;;;;;;;;;;5112137;27;20107;-66
2023/06/18 03:38:13;;;;;;;52.08;26.52;;;;;;;;;;5111711;27;22027;-66
2023/06/18 03:40:40;;;;;;;36.45;26.85;;;;;;;;;;5102760;27;20392;-66
2023/06/18 03:43:06;;;;;;;66.22;26.65;;;;;;;;;;5097892;28;20630;-66
2023/06/18 03:45:32;;;;;;;44.38;25.95;;;;;;;;;;5108683;27;20422;-66
2023/06/18 03:47:58;;;;;;;41.17;24.70;;;;;;;;;;5105694;27;20035;-66
2023/06/18 03:50:24;;;;;;;57.22;24.42;;;;;;;;;;5110490;27;20047;-66
2023/06/18 03:52:50;;;;;;;38.00;25.52;;;;;;;;;;5108932;27;20039;-66
2023/06/18 03:55:17;;;;;;;47.95;25.55;;;;;;;;;;5098756;28;20093;-66
2023/06/18 03:57:43;;;;;;;34.92;25.50;;;;;;;;;;5110228;27;20040;-66
2023/06/18 04:00:10;;;;;;;45.58;25.50;;;;;;;;;;5097528;28;20629;-66
2023/06/18 04:02:36;;;;;;;39.15;26.40;;;;;;;;;;5100572;28;20085;-66
2023/06/18 04:05:03;;;;;;;48.63;27.15;;;;;;;;;;5105753;28;20043;-66
2023/06/18 04:07:30;;;;;;;39.00;26.75;;;;;;;;;;5098203;27;20039;-66
2023/06/18 04:09:56;;;;;;;45.90;26.52;;;;;;;;;;5096269;27;20048;-66
2023/06/18 04:12:23;;;;;;;49.45;26.75;;;;;;;;;;5111800;27;20058;-66
2023/06/18 04:14:49;;;;;;;39.85;25.08;;;;;;;;;;5104723;28;20040;-66
2023/06/18 04:17:15;;;;;;;44.88;25.77;;;;;;;;;;5098800;27;20086;-66
2023/06/18 04:19:41;;;;;;;34.72;24.20;;;;;;;;;;5100912;27;20042;-66
2023/06/18 04:22:07;;;;;;;37.53;25.45;;;;;;;;;;5103777;28;20102;-66
2023/06/18 04:24:33;;;;;;;36.75;24.33;;;;;;;;;;5102389;28;20388;-66
2023/06/18 04:26:59;;;;;;;41.45;22.85;;;;;;;;;;5099593;27;20051;-66
2023/06/18 04:29:26;;;;;;;36.97;23.20;;;;;;;;;;5106227;27;20078;-66
2023/06/18 04:31:52;;;;;;;31.65;24.30;;;;;;;;;;5121181;27;20050;-66
2023/06/18 04:34:18;;;;;;;42.15;24.80;;;;;;;;;;5131779;27;20167;-66
2023/06/18 04:36:44;;;;;;;32.80;22.75;;;;;;;;;;5128577;27;20122;-66
2023/06/18 04:39:11;;;;;;;26.25;20.77;;;;;;;;;;5123861;27;20403;-66
2023/06/18 04:41:37;;;;;;;29.08;22.55;;;;;;;;;;5125440;27;20043;-66
2023/06/18 04:44:03;;;;;;;30.25;22.95;;;;;;;;;;5116289;27;20054;-66
2023/06/18 04:46:29;;;;;;;31.95;23.38;;;;;;;;;;5132024;27;20091;-66
2023/06/18 04:48:59;;;;;;;32.50;22.20;;;;;;;;;;5126860;27;20046;-66
2023/06/18 04:51:25;;;;;;;37.55;23.83;;;;;;;;;;5122717;27;20054;-66
2023/06/18 04:53:52;;;;;;;31.15;23.20;;;;;;;;;;5133931;27;20043;-66
2023/06/18 04:56:19;;;;;;;31.88;23.77;;;;;;;;;;5127504;27;20038;-66
2023/06/18 04:58:45;;;;;;;31.25;23.55;;;;;;;;;;5113461;27;20042;-66
2023/06/18 05:01:11;;;;;;;33.53;24.40;;;;;;;;;;5126432;27;20043;-66
2023/06/18 05:03:37;;;;;;;33.97;24.15;;;;;;;;;;5118008;27;20051;-66
2023/06/18 05:06:03;;;;;;;32.95;22.95;;;;;;;;;;5130697;27;20062;-66
2023/06/18 05:08:30;;;;;;;34.25;25.35;;;;;;;;;;5118693;27;20061;-66
2023/06/18 05:10:56;;;;;;;34.35;24.38;;;;;;;;;;5130601;27;20031;-66
2023/06/18 05:13:22;;;;;;;33.13;24.00;;;;;;;;;;5139528;27;20070;-69
2023/06/18 05:15:48;;;;;;;33.15;24.52;;;;;;;;;;5134558;27;20122;-69
2023/06/18 05:18:14;;;;;;;31.20;24.27;;;;;;;;;;5132030;27;20051;-69
2023/06/18 05:20:41;;;;;;;36.17;25.33;;;;;;;;;;5102063;27;20043;-69
2023/06/18 05:23:07;;;;;;;29.52;21.98;;;;;;;;;;5114307;27;20058;-69
2023/06/18 05:25:36;;;;;;;34.30;25.13;;;;;;;;;;5118402;28;20036;-69
2023/06/18 05:28:02;;;;;;;33.15;24.10;;;;;;;;;;5099972;28;20074;-68
2023/06/18 05:30:28;;;;;;;31.77;23.80;;;;;;;;;;5131890;27;20059;-68
2023/06/18 05:32:55;;;;;;;35.53;25.98;;;;;;;;;;5127897;27;20043;-70
2023/06/18 05:35:21;;;;;;;30.13;22.60;;;;;;;;;;5132316;28;20036;-70
2023/06/18 05:37:47;;;;;;;29.42;22.85;;;;;;;;;;5098293;28;20198;-70
2023/06/18 05:40:13;;;;;;;29.75;22.30;;;;;;;;;;5129537;27;20043;-69
2023/06/18 05:42:39;;;;;;;29.13;22.05;;;;;;;;;;5132291;27;20043;-71
2023/06/18 05:45:06;;;;;;;29.00;22.08;;;;;;;;;;5117752;27;20049;-71
2023/06/18 05:47:33;;;;;;;29.90;23.92;;;;;;;;;;5136551;27;20447;-71
2023/06/18 05:49:59;;;;;;;28.58;22.23;;;;;;;;;;5134734;27;20035;-70
2023/06/18 05:52:25;;;;;;;29.80;21.63;;;;;;;;;;5135656;27;20119;-70
2023/06/18 05:54:51;;;;;;;30.13;23.50;;;;;;;;;;5136103;27;20043;-70
2023/06/18 05:57:17;;;;;;;32.25;23.90;;;;;;;;;;5136510;27;20039;-72
2023/06/18 05:59:47;;;;;;;27.00;22.15;;;;;;;;;;5135703;27;20035;-70
2023/06/18 06:02:13;;;;;;;30.52;23.73;;;;;;;;;;5114254;27;20482;-71
2023/06/18 06:04:39;;;;;;;27.55;21.98;;;;;;;;;;5118073;27;20047;-71
2023/06/18 06:07:06;;;;;;;30.55;22.83;;;;;;;;;;5116363;27;20051;-71
2023/06/18 06:09:32;;;;;;;29.50;23.92;;;;;;;;;;5134649;27;20394;-70
2023/06/18 06:11:58;;;;;;;28.70;23.42;;;;;;;;;;5136192;27;20159;-71
2023/06/18 06:14:24;;;;;;;28.88;23.70;;;;;;;;;;5117108;27;20074;-71
2023/06/18 06:16:57;;;;;;;27.90;22.15;;;;;;;;;;5134873;27;20043;-71
2023/06/18 06:19:23;;;;;;;29.20;22.50;;;;;;;;;;5103025;27;20055;-71
2023/06/18 06:21:49;;;;;;;29.70;22.48;;;;;;;;;;5117081;27;20043;-71
2023/06/18 06:24:15;;;;;;;29.40;22.30;;;;;;;;;;5117719;27;20077;-71
2023/06/18 06:26:42;;;;;;;30.17;22.95;;;;;;;;;;5131389;27;20491;-71
2023/06/18 06:29:08;;;;;;;29.88;21.73;;;;;;;;;;5122834;27;20569;-71
2023/06/18 06:31:34;;;;;;;29.60;21.83;;;;;;;;;;5121701;27;20387;-71
2023/06/18 06:34:01;;;;;;;34.22;23.30;;;;;;;;;;5134544;27;20054;-71
2023/06/18 06:36:27;;;;;;;33.00;23.08;;;;;;;;;;5116723;27;20402;-71
2023/06/18 06:38:53;;;;;;;31.33;22.35;;;;;;;;;;5117204;27;20100;-71
2023/06/18 06:41:19;;;;;;;31.73;24.38;;;;;;;;;;5116753;27;20047;-71
2023/06/18 06:43:45;;;;;;;31.38;23.17;;;;;;;;;;5133992;27;20070;-71
2023/06/18 06:46:12;;;;;;;32.00;22.98;;;;;;;;;;5135246;27;20063;-70
2023/06/18 06:48:39;;;;;;;31.92;23.25;;;;;;;;;;5133208;27;20443;-70
2023/06/18 06:51:05;;;;;;;34.53;24.52;;;;;;;;;;5134054;27;20067;-70
2023/06/18 06:53:31;;;;;;;29.25;21.70;;;;;;;;;;5132240;27;20047;-70
2023/06/18 06:55:57;;;;;;;35.50;23.35;;;;;;;;;;5118162;27;20453;-70
2023/06/18 06:58:24;;;;;;;31.98;24.20;;;;;;;;;;5116882;27;20059;-69
2023/06/18 07:00:50;;;;;;;31.77;22.70;;;;;;;;;;5135300;27;20035;-70
2023/06/18 07:03:16;;;;;;;32.03;23.40;;;;;;;;;;5113912;27;20047;-69
2023/06/18 07:05:42;;;;;;;30.90;22.83;;;;;;;;;;5135261;27;20057;-70
2023/06/18 07:08:09;;;;;;;32.88;24.10;;;;;;;;;;5129275;27;20058;-70
2023/06/18 07:10:35;;;;;;;37.05;24.95;;;;;;;;;;5130418;27;20038;-70
2023/06/18 07:13:01;;;;;;;33.20;25.00;;;;;;;;;;5135177;27;20043;-70
2023/06/18 07:15:27;;;;;;;32.22;22.98;;;;;;;;;;5135055;27;20122;-70
2023/06/18 07:17:53;;;;;;;32.33;23.83;;;;;;;;;;5124924;27;20143;-70
2023/06/18 07:20:20;;;;;;;35.95;24.55;;;;;;;;;;5133659;27;20518;-70
2023/06/18 07:22:46;;;;;;;36.95;25.50;;;;;;;;;;5116533;27;20047;-71
2023/06/18 07:25:12;;;;;;;31.90;24.05;;;;;;;;;;5135335;27;20046;-70
2023/06/18 07:27:38;;;;;;;30.63;22.20;;;;;;;;;;5139019;27;20063;-69
2023/06/18 07:30:05;;;;;;;32.92;24.23;;;;;;;;;;5118493;27;20051;-70
2023/06/18 07:32:31;;;;;;;34.30;25.23;;;;;;;;;;5126439;27;20173;-70
2023/06/18 07:34:57;;;;;;;30.65;23.77;;;;;;;;;;5109636;27;20487;-70
2023/06/18 07:37:24;;;;;;;30.23;23.58;;;;;;;;;;5114129;28;20048;-70
2023/06/18 07:39:50;;;;;;;33.63;26.05;;;;;;;;;;5111967;27;20035;-70
2023/06/18 07:42:16;;;;;;;33.88;23.27;;;;;;;;;;5110983;27;20472;-70
2023/06/18 07:44:42;;;;;;;30.05;22.65;;;;;;;;;;5118222;27;20036;-70
2023/06/18 07:47:08;;;;;;;35.67;24.10;;;;;;;;;;5129051;27;20071;-71
2023/06/18 07:49:34;;;;;;;32.47;22.95;;;;;;;;;;5085038;28;20131;-70
2023/06/18 07:52:01;;;;;;;30.42;22.38;;;;;;;;;;5128512;27;20158;-70
2023/06/18 07:54:27;;;;;;;28.83;21.25;;;;;;;;;;5129875;27;20454;-70
2023/06/18 07:56:54;;;;;;;31.13;22.75;;;;;;;;;;5113942;28;20045;-70
2023/06/18 07:59:20;;;;;;;30.77;21.77;;;;;;;;;;5128800;27;20078;-70
2023/06/18 08:01:46;;;;;;;27.75;21.33;;;;;;;;;;5112675;28;20043;-70
2023/06/18 08:04:12;;;;;;;29.92;21.92;;;;;;;;;;5094193;28;20391;-70
2023/06/18 08:06:39;;;;;;;28.25;20.52;;;;;;;;;;5111650;28;20093;-70
2023/06/18 08:09:05;;;;;;;29.25;21.67;;;;;;;;;;5113534;28;20066;-70
2023/06/18 08:11:31;;;;;;;30.25;20.75;;;;;;;;;;5129111;27;20349;-71
2023/06/18 08:13:57;;;;;;;27.40;19.85;;;;;;;;;;5122682;27;20048;-70
2023/06/18 08:16:23;;;;;;;28.73;21.08;;;;;;;;;;5110451;27;20107;-71
2023/06/18 08:18:52;;;;;;;29.35;21.30;;;;;;;;;;5116066;27;20122;-71
2023/06/18 08:21:19;;;;;;;27.48;20.08;;;;;;;;;;5108188;27;20044;-70
2023/06/18 08:23:45;;;;;;;25.23;19.83;;;;;;;;;;5104066;28;20397;-70
2023/06/18 08:26:11;;;;;;;25.60;19.63;;;;;;;;;;5112961;28;20124;-75
2023/06/18 08:28:43;;;;;;;27.23;18.38;;;;;;;;;;5122509;27;1400169;-69
2023/06/18 08:31:09;;;;;;;23.85;17.60;;;;;;;;;;5164236;27;20046;-69
2023/06/18 08:33:35;;;;;;;21.75;17.50;;;;;;;;;;5162333;27;20134;-71
2023/06/18 08:36:02;;;;;;;21.98;16.40;;;;;;;;;;5144171;27;20088;-70
2023/06/18 08:38:28;;;;;;;20.58;16.17;;;;;;;;;;5144148;27;20035;-70
2023/06/18 08:40:55;;;;;;;29.60;17.65;;;;;;;;;;5148167;27;20052;-70
2023/06/18 08:43:26;;;;;;;21.75;17.08;;;;;;;;;;5158156;27;20046;-70
2023/06/18 08:45:52;;;;;;;22.48;16.50;;;;;;;;;;5152958;27;20130;-70
2023/06/18 08:48:25;;;;;;;24.80;16.67;;;;;;;;;;5170441;27;20054;-71
2023/06/18 08:50:54;;;;;;;21.97;15.07;;;;;;;;;;5136530;27;20435;-70
2023/06/18 08:53:30;;;;;;;25.40;17.33;;;;;;;;;;5144477;27;20103;-70
2023/06/18 08:55:57;;;;;;;20.80;13.98;;;;;;;;;;5146030;27;20470;-70
2023/06/18 08:58:26;;;;;;;18.65;13.68;;;;;;;;;;5165084;27;20398;-70
2023/06/18 09:00:53;;;;;;;18.75;14.50;;;;;;;;;;5158893;27;20042;-70
2023/06/18 09:03:21;;;;;;;19.63;14.95;;;;;;;;;;5163880;27;20042;-70
2023/06/18 09:05:48;;;;;;;18.38;12.63;;;;;;;;;;5141089;27;20502;-70
2023/06/18 09:08:14;;;;;;;17.35;12.73;;;;;;;;;;5147014;27;20081;-70
2023/06/18 09:10:40;;;;;;;17.27;12.73;;;;;;;;;;5140694;27;20086;-70
2023/06/18 09:13:06;;;;;;;17.42;11.60;;;;;;;;;;5151243;27;20053;-70
2023/06/18 09:15:32;;;;;;;17.38;13.00;;;;;;;;;;5152052;27;20094;-70
2023/06/18 09:17:59;;;;;;;18.02;12.30;;;;;;;;;;5169901;27;20035;-70
2023/06/18 09:20:27;;;;;;;16.40;10.93;;;;;;;;;;5169894;27;20575;-70
2023/06/18 09:22:53;;;;;;;14.65;11.45;;;;;;;;;;5170126;27;20045;-70
2023/06/18 09:25:24;;;;;;;12.48;9.77;;;;;;;;;;5147206;27;20058;-70
2023/06/18 09:27:50;;;;;;;17.20;11.70;;;;;;;;;;5130789;27;20144;-70
2023/06/18 09:30:23;;;;;;;15.50;10.75;;;;;;;;;;5129888;27;20096;-70
2023/06/18 09:32:49;;;;;;;15.83;11.20;;;;;;;;;;5130376;27;20148;-70
2023/06/18 09:35:16;;;;;;;15.35;11.70;;;;;;;;;;5135326;27;20050;-70
2023/06/18 09:37:43;;;;;;;17.08;11.25;;;;;;;;;;5131965;27;20386;-70
2023/06/18 09:40:15;;;;;;;16.13;9.55;;;;;;;;;;5122493;27;20035;-70
2023/06/18 09:42:41;;;;;;;14.70;10.50;;;;;;;;;;5119740;27;20168;-70
2023/06/18 09:45:07;;;;;;;15.38;10.57;;;;;;;;;;5128880;27;20045;-70
2023/06/18 09:47:34;;;;;;;11.60;8.30;;;;;;;;;;5112742;28;20078;-70
2023/06/18 09:50:00;;;;;;;10.70;8.27;;;;;;;;;;5123329;27;20036;-70
2023/06/18 09:52:27;;;;;;;9.18;7.25;;;;;;;;;;5131345;27;20058;-70
2023/06/18 09:54:53;;;;;;;11.32;7.72;;;;;;;;;;5119300;27;20036;-70
2023/06/18 09:57:20;;;;;;;12.27;7.72;;;;;;;;;;5124655;27;20118;-69
2023/06/18 09:59:46;;;;;;;14.07;8.68;;;;;;;;;;5125304;27;20055;-69
2023/06/18 10:02:23;;;;;;;11.25;7.57;;;;;;;;;;5119587;27;20042;-69
2023/06/18 10:04:49;;;;;;;9.48;7.10;;;;;;;;;;5121773;27;20043;-70
2023/06/18 10:07:16;;;;;;;8.70;6.95;;;;;;;;;;5117641;27;20036;-70
2023/06/18 10:09:43;;;;;;;11.55;7.07;;;;;;;;;;5121390;27;20047;-70
2023/06/18 10:12:11;;;;;;;10.13;7.47;;;;;;;;;;5127844;27;20548;-70
2023/06/18 10:14:37;;;;;;;9.45;6.85;;;;;;;;;;5133096;27;20068;-69
2023/06/18 10:17:11;;;;;;;10.63;8.02;;;;;;;;;;5113467;28;20040;-70
2023/06/18 10:19:43;;;;;;;9.57;7.35;;;;;;;;;;5131149;27;20133;-67
2023/06/18 10:22:12;;;;;;;10.18;6.60;;;;;;;;;;5115102;27;20039;-70
2023/06/18 10:24:44;;;;;;;9.20;5.95;;;;;;;;;;5133020;27;20432;-70
2023/06/18 10:27:11;;;;;;;8.90;6.57;;;;;;;;;;5132073;27;20046;-70
2023/06/18 10:29:38;;;;;;;11.73;6.15;;;;;;;;;;5109439;27;20039;-69
2023/06/18 10:32:05;;;;;;;11.82;7.15;;;;;;;;;;5136434;27;20034;-70
2023/06/18 10:34:32;;;;;;;8.85;6.60;;;;;;;;;;5135772;27;20039;-70
2023/06/18 10:36:59;;;;;;;10.95;7.22;;;;;;;;;;5136770;27;20384;-70
2023/06/18 10:39:25;;;;;;;8.15;6.30;;;;;;;;;;5125552;27;20375;-69
2023/06/18 10:41:52;;;;;;;9.52;6.68;;;;;;;;;;5145418;27;20075;-70
2023/06/18 10:44:32;;;;;;;9.13;6.80;;;;;;;;;;5155177;27;20497;-70
2023/06/18 10:47:17;;;;;;;9.75;6.35;;;;;;;;;;5135949;27;20074;-70
2023/06/18 10:50:04;;;;;;;14.02;6.30;;;;;;;;;;5145539;27;20366;-70
2023/06/18 10:52:37;;;;;;;8.50;6.32;;;;;;;;;;5154318;27;20378;-71
2023/06/18 10:55:03;;;;;;;;;;;;;;;;;;5153879;27;20083;-70
2023/06/18 10:57:30;;;;;;;9.73;6.25;;;;;;;;;;5154620;27;19967;-70
2023/06/18 10:59:59;;;;;;;8.15;5.93;;;;;;;;;;5136231;27;20168;-70
2023/06/18 11:02:32;;;;;;;9.98;6.22;;;;;;;;;;5135023;27;20030;-70
2023/06/18 11:04:58;;;;;;;7.18;5.82;;;;;;;;;;5152087;27;20038;-68
2023/06/18 11:07:27;;;;;;;8.73;6.22;;;;;;;;;;5154580;27;20121;-68
2023/06/18 11:09:55;;;;;;;9.02;5.50;;;;;;;;;;5153950;27;20390;-68
2023/06/18 11:12:23;;;;;;;11.07;6.05;;;;;;;;;;5155472;27;20417;-68
2023/06/18 11:15:11;;;;;;;12.18;5.68;;;;;;;;;;5136070;27;20500;-69
2023/06/18 11:17:38;;;;;;;8.48;6.03;;;;;;;;;;5153786;27;20045;-68
2023/06/18 11:20:05;;;;;;;7.82;6.03;;;;;;;;;;5136199;27;20454;-68
2023/06/18 11:22:31;;;;;;;8.50;6.38;;;;;;;;;;5155009;27;20095;-68
2023/06/18 11:24:58;;;;;;;9.32;5.68;;;;;;;;;;5153608;27;20431;-67
2023/06/18 11:27:30;;;;;;;8.95;5.72;;;;;;;;;;5126340;27;20359;-68
2023/06/18 11:29:57;;;;;;;8.40;5.90;;;;;;;;;;5148933;27;20259;-67
2023/06/18 11:32:23;;;;;;;8.73;5.50;;;;;;;;;;5134022;27;20107;-67
2023/06/18 11:34:53;;;;;;;11.38;6.43;;;;;;;;;;5132006;27;20099;-68
2023/06/18 11:37:19;;;;;;;9.45;6.38;;;;;;;;;;5128206;27;20058;-68
2023/06/18 11:39:45;;;;;;;9.25;6.22;;;;;;;;;;5128291;27;20416;-68
2023/06/18 11:42:12;;;;;;;8.63;5.75;;;;;;;;;;5134457;27;20126;-67
2023/06/18 11:44:46;;;;;;;7.57;5.97;;;;;;;;;;5134619;27;20046;-67
2023/06/18 11:47:12;;;;;;;10.40;6.88;;;;;;;;;;5153697;27;20079;-68
2023/06/18 11:49:42;;;;;;;9.85;6.35;;;;;;;;;;5125987;27;20074;-67
2023/06/18 11:52:08;;;;;;;8.25;6.25;;;;;;;;;;5149365;27;20072;-68
2023/06/18 11:54:37;;;;;;;11.73;6.50;;;;;;;;;;5135319;27;20038;-67
2023/06/18 11:57:04;;;;;;;8.93;6.63;;;;;;;;;;5135092;27;20050;-67
2023/06/18 11:59:32;;;;;;;8.05;5.97;;;;;;;;;;5153033;27;20118;-67
2023/06/18 12:02:09;;;;;;;11.00;6.18;;;;;;;;;;5133030;27;20550;-68
2023/06/18 12:04:36;;;;;;;8.35;5.90;;;;;;;;;;5131328;27;20051;-68
2023/06/18 12:07:02;;;;;;;8.25;5.68;;;;;;;;;;5145676;27;20078;-68
2023/06/18 12:09:32;;;;;;;8.18;5.82;;;;;;;;;;5153706;27;20122;-68
2023/06/18 12:12:11;;;;;;;7.93;6.00;;;;;;;;;;5134220;27;20509;-67
2023/06/18 12:14:37;;;;;;;9.63;5.90;;;;;;;;;;5153429;27;20057;-68
2023/06/18 12:17:07;;;;;;;8.65;5.70;;;;;;;;;;5135313;27;20497;-68
2023/06/18 12:19:34;;;;;;;8.15;5.80;;;;;;;;;;5152318;27;20118;-68
2023/06/18 12:22:00;;;;;;;9.00;5.82;;;;;;;;;;5133235;27;20486;-68
2023/06/18 12:24:28;;;;;;;7.65;6.18;;;;;;;;;;5134499;27;20509;-68
2023/06/18 12:26:55;;;;;;;8.48;5.63;;;;;;;;;;5147747;27;20063;-68
2023/06/18 12:29:22;;;;;;;8.88;5.75;;;;;;;;;;5148857;27;20362;-68
2023/06/18 12:32:03;;;;;;;8.23;5.38;;;;;;;;;;5153684;27;20098;-68
2023/06/18 12:34:33;;;;;;;9.73;5.63;;;;;;;;;;5134065;27;20521;-68
2023/06/18 12:36:59;;;;;;;9.85;5.78;;;;;;;;;;5146618;27;20039;-74
2023/06/18 12:39:25;;;;;;;9.55;5.53;;;;;;;;;;5149540;27;20043;-82
2023/06/18 12:41:51;;;;;;;10.77;5.95;;;;;;;;;;5134023;27;20077;-76
2023/06/18 12:44:21;;;;;;;7.05;5.63;;;;;;;;;;5153358;27;20042;-75
2023/06/18 12:46:49;;;;;;;6.57;5.28;;;;;;;;;;5151069;27;20050;-76
2023/06/18 12:49:17;;;;;;;8.05;5.63;;;;;;;;;;5121085;27;20366;-68
2023/06/18 12:51:43;;;;;;;7.32;5.05;;;;;;;;;;5145900;27;20079;-68
2023/06/18 12:54:28;;;;;;;9.95;6.13;;;;;;;;;;5151926;27;20074;-68
2023/06/18 12:56:55;;;;;;;7.88;5.53;;;;;;;;;;5153195;27;20542;-68
2023/06/18 12:59:22;;;;;;;8.60;5.47;;;;;;;;;;5134719;27;20045;-68
2023/06/18 13:01:48;;;;;;;7.80;5.65;;;;;;;;;;5133926;27;20061;-68
2023/06/18 13:04:16;;;;;;;8.85;5.90;;;;;;;;;;5123011;27;20047;-67
2023/06/18 13:06:46;;;;;;;12.25;6.20;;;;;;;;;;5113879;28;20051;-68
2023/06/18 13:09:12;;;;;;;9.18;5.50;;;;;;;;;;5149007;27;20117;-68
2023/06/18 13:11:38;;;;;;;7.28;5.70;;;;;;;;;;5153251;27;20367;-68
2023/06/18 13:14:04;;;;;;;7.07;5.53;;;;;;;;;;5135715;27;20513;-68
2023/06/18 13:16:31;;;;;;;7.07;5.70;;;;;;;;;;5156216;27;20131;-68
2023/06/18 13:18:57;;;;;;;8.07;5.22;;;;;;;;;;5136806;27;20047;-68
2023/06/18 13:21:24;;;;;;;7.18;5.38;;;;;;;;;;5137293;27;20060;-73
2023/06/18 13:23:50;;;;;;;6.38;5.15;;;;;;;;;;5155644;27;20543;-68
2023/06/18 13:26:18;;;;;;;7.93;5.78;;;;;;;;;;5135040;27;20286;-68
2023/06/18 13:28:44;;;;;;;8.07;5.57;;;;;;;;;;5102894;27;20160;-68
2023/06/18 13:31:11;;;;;;;9.00;5.80;;;;;;;;;;5129226;27;20390;-68
2023/06/18 13:33:37;;;;;;;7.97;6.03;;;;;;;;;;5156491;27;20110;-68
2023/06/18 13:36:04;;;;;;;9.30;5.60;;;;;;;;;;5137744;27;20042;-68
2023/06/18 13:38:30;;;;;;;8.48;5.85;;;;;;;;;;5135981;27;20039;-68
2023/06/18 13:40:56;;;;;;;9.85;5.72;;;;;;;;;;5135926;27;20051;-68
2023/06/18 13:43:23;;;;;;;8.65;5.38;;;;;;;;;;5137351;27;20054;-68
2023/06/18 13:45:49;;;;;;;11.60;5.95;;;;;;;;;;5156389;27;20121;-68
2023/06/18 13:48:16;;;;;;;7.70;5.20;;;;;;;;;;5156156;27;20050;-68
2023/06/18 13:50:42;;;;;;;8.38;5.32;;;;;;;;;;5155262;27;20078;-68
2023/06/18 13:53:09;;;;;;;8.52;5.28;;;;;;;;;;5155937;27;20379;-68
2023/06/18 13:55:36;;;;;;;11.52;5.53;;;;;;;;;;5149719;27;20037;-68
2023/06/18 13:58:02;;;;;;;7.60;5.72;;;;;;;;;;5144201;27;20078;-68
2023/06/18 14:00:28;;;;;;;9.00;4.85;;;;;;;;;;5155958;27;20045;-68
2023/06/18 14:02:55;;;;;;;7.80;5.20;;;;;;;;;;5155133;27;20039;-68
2023/06/18 14:05:21;;;;;;;6.65;5.38;;;;;;;;;;5136604;27;20058;-66
2023/06/18 14:07:47;;;;;;;12.15;5.28;;;;;;;;;;5148078;27;20043;-66
2023/06/18 14:10:14;;;;;;;11.93;5.55;;;;;;;;;;5156111;27;20035;-68
2023/06/18 14:12:40;;;;;;;8.85;5.95;;;;;;;;;;5142299;27;20121;-68
2023/06/18 14:15:07;;;;;;;8.20;5.93;;;;;;;;;;5133509;27;20078;-68
2023/06/18 14:17:35;;;;;;;7.72;5.20;;;;;;;;;;5136819;27;20058;-67
2023/06/18 14:20:01;;;;;;;11.20;6.13;;;;;;;;;;5155014;27;20038;-68
2023/06/18 14:22:27;;;;;;;8.68;5.60;;;;;;;;;;5137259;27;20066;-68
2023/06/18 14:24:55;;;;;;;8.68;6.00;;;;;;;;;;5149353;27;20043;-70